Time;durP1;ratioP1;P1;durP2;ratioP2;P2;SDS_P1;SDS_P2;PMS_P1;PMS_P2;Temp;Humidity;BMP_temperature;BMP_pressure;BME280_temperature;BME280_humidity;BME280_pressure;Samples;Min_cycle;Max_cycle;Signal;HPM_P1;HPM_P2
2022/09/29 00:00:53;;;;;;;5.05;1.50;;;;;;;16.35;65.11;93109.13;6165758;23;20054;-76
2022/09/29 00:03:19;;;;;;;5.88;2.00;;;;;;;16.23;65.66;93102.84;6166994;23;20028;-76
2022/09/29 00:05:53;;;;;;;4.45;2.13;;;;;;;16.24;65.66;93093.66;6166641;23;19997;-76
2022/09/29 00:08:21;;;;;;;9.45;2.22;;;;;;;16.25;65.60;93091.72;6166869;23;20180;-76
2022/09/29 00:10:47;;;;;;;11.30;2.75;;;;;;;16.27;64.91;93084.06;6166503;23;19998;-76
2022/09/29 00:13:14;;;;;;;4.20;2.25;;;;;;;16.22;65.26;93077.09;6166742;23;20092;-77
2022/09/29 00:15:40;;;;;;;6.30;1.98;;;;;;;16.28;65.12;93093.66;6166663;23;20061;-76
2022/09/29 00:18:07;;;;;;;8.68;3.03;;;;;;;16.27;65.42;93089.44;6166623;23;20454;-76
2022/09/29 00:20:33;;;;;;;3.20;1.77;;;;;;;16.31;65.75;93066.06;6166599;23;20007;-77
2022/09/29 00:22:58;;;;;;;8.30;2.38;;;;;;;16.36;65.29;93089.16;6166504;23;20292;-76
2022/09/29 00:25:24;;;;;;;8.80;1.88;;;;;;;16.35;65.30;93088.38;6166366;23;20335;-77
2022/09/29 00:27:49;;;;;;;4.25;1.42;;;;;;;16.30;65.09;93090.63;6166900;23;20001;-76
2022/09/29 00:30:15;;;;;;;8.45;2.17;;;;;;;16.21;65.19;93072.84;6166377;23;20244;-76
2022/09/29 00:32:40;;;;;;;3.97;2.22;;;;;;;16.23;65.79;93084.03;6166095;23;20017;-76
2022/09/29 00:35:07;;;;;;;8.15;3.78;;;;;;;16.19;66.38;93083.22;6166398;23;20049;-76
2022/09/29 00:37:33;;;;;;;3.30;1.88;;;;;;;16.15;66.01;93074.31;6166237;23;20048;-76
2022/09/29 00:39:59;;;;;;;11.05;2.67;;;;;;;16.15;66.25;93074.31;6166406;23;19997;-76
2022/09/29 00:42:24;;;;;;;6.40;2.10;;;;;;;16.08;66.82;93071.56;6166686;23;20028;-76
2022/09/29 00:45:05;;;;;;;10.73;2.67;;;;;;;16.00;66.83;93073.41;6166693;23;20021;-76
2022/09/29 00:47:36;;;;;;;4.93;3.25;;;;;;;15.97;67.03;93074.13;6166281;23;20013;-76
2022/09/29 00:50:11;;;;;;;4.75;2.05;;;;;;;15.97;67.18;93079.50;6166352;23;20188;-76
2022/09/29 00:52:42;;;;;;;6.60;2.25;;;;;;;15.88;68.06;93072.88;6166608;23;20001;-76
2022/09/29 00:55:28;;;;;;;9.20;2.72;;;;;;;15.75;67.71;93091.91;6166250;23;20096;-76
2022/09/29 00:57:59;;;;;;;12.13;2.70;;;;;;;15.56;68.51;93081.25;6164971;23;20001;-76
2022/09/29 01:00:25;;;;;;;5.55;2.33;;;;;;;15.55;68.74;93082.38;6166340;23;19997;-76
2022/09/29 01:03:01;;;;;;;7.50;2.58;;;;;;;15.52;69.22;93102.66;6166348;23;20355;-76
2022/09/29 01:05:36;;;;;;;8.85;2.90;;;;;;;15.40;68.46;93076.78;6166041;23;20005;-75
2022/09/29 01:08:12;;;;;;;2.83;1.90;;;;;;;15.35;68.75;93082.50;6166137;23;20116;-76
2022/09/29 01:10:40;;;;;;;4.40;2.08;;;;;;;15.39;69.23;93083.31;6166145;23;20153;-76
2022/09/29 01:13:05;;;;;;;10.63;2.38;;;;;;;15.36;69.54;93086.72;6165921;23;20017;-76
2022/09/29 01:15:31;;;;;;;4.78;2.20;;;;;;;15.34;69.94;93075.56;6166163;23;20020;-75
2022/09/29 01:17:57;;;;;;;5.60;1.77;;;;;;;15.36;69.99;93078.66;6166073;23;20008;-76
2022/09/29 01:20:24;;;;;;;5.03;2.45;;;;;;;15.33;70.07;93073.25;6166092;23;20195;-76
2022/09/29 01:23:07;;;;;;;11.75;2.40;;;;;;;15.30;70.44;93074.72;6166273;23;20001;-76
2022/09/29 01:25:51;;;;;;;5.78;2.17;;;;;;;15.22;69.94;93067.72;6166181;23;20052;-76
2022/09/29 01:28:19;;;;;;;6.40;2.10;;;;;;;15.13;70.35;93075.25;6166239;23;20288;-76
2022/09/29 01:31:13;;;;;;;11.02;2.28;;;;;;;15.03;70.80;93082.78;6166010;23;20060;-76
2022/09/29 01:33:42;;;;;;;3.85;2.00;;;;;;;14.96;70.89;93073.81;6166223;23;19994;-75
2022/09/29 01:36:20;;;;;;;7.07;2.00;;;;;;;14.96;71.12;93066.56;6166292;23;19997;-75
2022/09/29 01:39:09;;;;;;;4.32;2.33;;;;;;;14.92;71.02;93078.38;6166269;23;20006;-76
2022/09/29 01:41:52;;;;;;;6.45;2.03;;;;;;;14.93;71.54;93098.72;6164474;23;20009;-76
2022/09/29 01:44:25;;;;;;;6.80;2.13;;;;;;;14.80;71.10;93090.84;6165986;23;20001;-76
2022/09/29 01:47:04;;;;;;;5.25;2.35;;;;;;;14.74;71.29;93102.22;6166303;23;20303;-75
2022/09/29 01:49:33;;;;;;;6.55;2.30;;;;;;;14.75;71.49;93103.75;6166015;23;20004;-75
2022/09/29 01:52:05;;;;;;;6.03;2.40;;;;;;;14.75;71.16;93091.13;6165821;23;20002;-75
2022/09/29 01:54:38;;;;;;;5.40;2.00;;;;;;;14.76;71.12;93086.56;6165839;23;20012;-76
2022/09/29 01:57:18;;;;;;;5.05;1.83;;;;;;;14.76;71.32;93092.69;6165652;23;20002;-76
2022/09/29 01:59:51;;;;;;;4.10;2.08;;;;;;;14.77;71.23;93096.13;6165689;23;20000;-76
2022/09/29 02:02:26;;;;;;;4.55;1.95;;;;;;;14.76;71.29;93105.34;6165994;23;20342;-76
2022/09/29 02:04:57;;;;;;;5.93;2.85;;;;;;;14.77;71.23;93096.13;6166044;23;19998;-76
2022/09/29 02:07:44;;;;;;;5.47;1.92;;;;;;;14.75;71.85;93103.75;6165562;23;20001;-76
2022/09/29 02:10:17;;;;;;;12.73;2.33;;;;;;;14.75;71.98;93109.91;6165868;23;20001;-75
2022/09/29 02:12:44;;;;;;;9.45;2.35;;;;;;;14.67;72.02;93096.72;6165248;23;20061;-75
2022/09/29 02:15:16;;;;;;;9.50;1.63;;;;;;;14.61;72.26;93099.72;6165461;23;20199;-76
2022/09/29 02:17:47;;;;;;;4.53;1.85;;;;;;;14.57;72.36;93106.94;6165418;23;20064;-76
2022/09/29 02:20:13;;;;;;;2.78;1.83;;;;;;;14.56;72.40;93105.38;6165402;23;20010;-76
2022/09/29 02:22:39;;;;;;;3.75;1.90;;;;;;;14.57;72.38;93106.94;6165515;23;20002;-76
2022/09/29 02:25:08;;;;;;;6.88;2.15;;;;;;;14.61;72.53;93110.44;6165260;23;20033;-75
2022/09/29 02:27:35;;;;;;;17.55;2.00;;;;;;;14.63;72.62;93121.59;6165317;23;20001;-76
2022/09/29 02:30:00;;;;;;;4.72;2.28;;;;;;;14.59;72.72;93107.34;6165003;23;20021;-76
2022/09/29 02:32:28;;;;;;;8.52;2.20;;;;;;;14.62;72.59;93106.63;6165395;23;20021;-76
2022/09/29 02:34:55;;;;;;;7.53;2.80;;;;;;;14.66;72.66;93113.97;6165880;23;20177;-75
2022/09/29 02:37:35;;;;;;;7.38;2.40;;;;;;;14.64;72.93;93120.44;6165103;23;20005;-76
2022/09/29 02:40:17;;;;;;;11.82;3.00;;;;;;;14.59;72.81;93115.41;6165314;23;20029;-76
2022/09/29 02:43:20;;;;;;;8.27;2.30;;;;;;;14.62;72.79;93111.22;6165147;23;20025;-76
2022/09/29 02:46:04;;;;;;;;;;;;;;;14.59;72.98;93115.41;6165625;23;20005;-76
2022/09/29 02:48:35;;;;;;;6.68;2.35;;;;;;;14.55;73.61;93124.44;6165322;23;19904;-76
2022/09/29 02:51:01;;;;;;;12.95;3.30;;;;;;;14.47;73.60;93120.09;6165243;23;20039;-75
2022/09/29 02:53:38;;;;;;;15.80;2.47;;;;;;;14.43;73.66;93117.34;6165060;23;19998;-75
2022/09/29 02:56:22;;;;;;;10.38;2.95;;;;;;;14.46;73.33;93122.00;6164825;23;20008;-75
2022/09/29 02:59:02;;;;;;;8.20;2.70;;;;;;;14.51;72.93;93116.38;6165165;23;20005;-75
2022/09/29 03:01:32;;;;;;;7.82;2.33;;;;;;;14.52;72.97;93117.91;6164935;23;20005;-76
2022/09/29 03:03:59;;;;;;;10.05;2.65;;;;;;;14.52;73.41;93125.94;6165138;23;19994;-75
2022/09/29 03:06:26;;;;;;;9.82;2.65;;;;;;;14.44;73.40;93090.19;6164727;23;20048;-75
2022/09/29 03:08:52;;;;;;;7.15;2.53;;;;;;;14.49;73.49;93069.56;6165133;23;20283;-75
2022/09/29 03:11:17;;;;;;;11.10;2.88;;;;;;;14.49;73.10;93069.56;6164520;23;20005;-76
2022/09/29 03:13:43;;;;;;;10.00;2.50;;;;;;;14.51;73.06;93070.78;6164694;23;20032;-76
2022/09/29 03:16:08;;;;;;;7.82;2.38;;;;;;;14.52;72.66;93080.38;6164799;23;20329;-75
2022/09/29 03:18:33;;;;;;;6.32;2.50;;;;;;;14.55;72.64;93076.97;6164825;23;20001;-76
2022/09/29 03:20:59;;;;;;;7.53;2.33;;;;;;;14.58;72.91;93070.94;6164367;23;20291;-75
2022/09/29 03:23:25;;;;;;;11.60;2.95;;;;;;;14.61;72.75;93086.31;6164404;23;20016;-75
2022/09/29 03:25:50;;;;;;;11.82;2.85;;;;;;;14.64;72.36;93090.19;6164870;23;20007;-76
2022/09/29 03:28:16;;;;;;;8.18;2.38;;;;;;;14.62;72.52;93087.09;6164864;23;20017;-76
2022/09/29 03:30:41;;;;;;;6.57;2.38;;;;;;;14.67;72.23;93104.78;6164409;23;20016;-76
2022/09/29 03:33:06;;;;;;;7.85;2.60;;;;;;;14.69;72.33;93092.56;6164415;23;20028;-76
2022/09/29 03:35:32;;;;;;;7.90;2.95;;;;;;;14.70;72.29;93088.00;6164351;23;20082;-76
2022/09/29 03:37:59;;;;;;;10.15;2.70;;;;;;;14.57;72.09;93098.09;6164813;23;19999;-76
2022/09/29 03:40:25;;;;;;;9.05;2.63;;;;;;;14.55;72.53;93103.00;6164559;23;20314;-76
2022/09/29 03:42:50;;;;;;;7.93;2.33;;;;;;;14.51;73.06;93121.72;6163958;23;20001;-76
2022/09/29 03:45:16;;;;;;;7.65;2.95;;;;;;;14.36;73.48;93130.63;6164635;23;20043;-76
2022/09/29 03:47:41;;;;;;;11.15;3.70;;;;;;;14.21;74.19;93135.72;6164497;23;20029;-76
2022/09/29 03:50:07;;;;;;;7.85;2.95;;;;;;;14.17;74.54;93124.16;6164694;23;20003;-76
2022/09/29 03:52:32;;;;;;;9.15;3.10;;;;;;;14.15;74.80;93134.44;6164425;23;19994;-76
2022/09/29 03:54:58;;;;;;;15.75;2.92;;;;;;;14.10;74.93;93133.94;6164372;23;20002;-75
2022/09/29 03:57:23;;;;;;;8.95;2.95;;;;;;;14.06;75.17;93112.44;6164386;23;20004;-76
2022/09/29 03:59:49;;;;;;;12.20;3.20;;;;;;;13.99;75.77;93114.97;6164946;23;20017;-76
2022/09/29 04:02:17;;;;;;;6.80;3.15;;;;;;;13.82;76.28;93124.22;6164450;23;19997;-76
2022/09/29 04:04:43;;;;;;;6.40;2.72;;;;;;;13.76;76.80;93128.25;6164501;23;20013;-76
2022/09/29 04:07:08;;;;;;;9.07;3.95;;;;;;;13.72;76.95;93125.53;6164615;23;20283;-76
2022/09/29 04:09:34;;;;;;;6.28;3.22;;;;;;;13.75;76.98;93129.41;6164820;23;20002;-76
2022/09/29 04:12:00;;;;;;;5.97;3.03;;;;;;;13.70;77.27;93127.78;6164449;23;20196;-76
2022/09/29 04:14:25;;;;;;;10.10;2.45;;;;;;;13.63;77.51;93117.66;6164066;23;20144;-76
2022/09/29 04:16:50;;;;;;;7.05;2.95;;;;;;;13.70;77.61;93121.63;6164677;23;20032;-76
2022/09/29 04:19:16;;;;;;;9.02;3.15;;;;;;;13.73;77.39;93119.03;6164360;23;20228;-76
2022/09/29 04:21:41;;;;;;;9.45;3.08;;;;;;;13.75;76.87;93111.41;6164368;23;20010;-76
2022/09/29 04:24:07;;;;;;;13.80;3.90;;;;;;;13.78;77.23;93117.97;6163964;23;20013;-76
2022/09/29 04:26:32;;;;;;;6.03;3.10;;;;;;;13.80;77.19;93124.56;6164185;23;20248;-76
2022/09/29 04:28:58;;;;;;;8.48;2.88;;;;;;;13.81;76.81;93123.41;6164173;23;20040;-75
2022/09/29 04:31:23;;;;;;;15.43;3.28;;;;;;;13.81;76.72;93117.28;6163910;23;20032;-76
2022/09/29 04:33:48;;;;;;;7.63;2.85;;;;;;;13.87;76.41;93125.81;6164616;23;20004;-76
2022/09/29 04:36:14;;;;;;;10.73;3.17;;;;;;;13.89;76.00;93120.91;6164600;23;20272;-76
2022/09/29 04:38:39;;;;;;;6.93;2.88;;;;;;;13.87;75.80;93115.13;6164320;23;20024;-75
2022/09/29 04:41:05;;;;;;;7.30;3.00;;;;;;;13.88;75.89;93108.63;6164444;23;20004;-75
2022/09/29 04:43:30;;;;;;;6.05;3.50;;;;;;;13.90;75.85;93117.06;6164128;23;20296;-75
2022/09/29 04:46:06;;;;;;;9.30;3.70;;;;;;;13.91;76.13;93110.59;6164462;23;20025;-75
2022/09/29 04:48:32;;;;;;;18.02;3.30;;;;;;;13.92;75.92;93101.44;6166220;23;20001;-76
2022/09/29 04:50:57;;;;;;;14.55;3.58;;;;;;;13.98;75.92;93116.88;6166138;23;20001;-76
2022/09/29 04:53:23;;;;;;;12.70;3.97;;;;;;;14.02;75.54;93111.59;6166044;23;19998;-76
2022/09/29 04:55:48;;;;;;;13.45;3.53;;;;;;;14.03;75.56;93107.78;6166141;23;20040;-76
2022/09/29 04:58:14;;;;;;;6.40;2.97;;;;;;;14.02;75.65;93108.91;6165598;23;20005;-75
2022/09/29 05:00:39;;;;;;;9.02;3.45;;;;;;;14.05;75.61;93106.31;6166055;23;20180;-75
2022/09/29 05:03:05;;;;;;;8.52;3.63;;;;;;;14.07;75.63;93108.63;6165935;23;20054;-75
2022/09/29 05:05:30;;;;;;;9.02;3.47;;;;;;;14.07;75.48;93099.81;6165655;23;20173;-75
2022/09/29 05:07:58;;;;;;;9.93;4.35;;;;;;;14.14;75.03;93105.31;6165663;23;20021;-75
2022/09/29 05:10:27;;;;;;;7.97;3.47;;;;;;;14.21;74.79;93108.13;6166044;23;19997;-76
2022/09/29 05:12:52;;;;;;;11.85;3.90;;;;;;;14.31;74.78;93104.09;6165736;23;20203;-76
2022/09/29 05:15:18;;;;;;;10.95;4.65;;;;;;;14.38;75.03;93106.91;6165892;23;20013;-76
2022/09/29 05:17:44;;;;;;;10.10;3.85;;;;;;;14.47;74.61;93112.84;6165354;23;20044;-76
2022/09/29 05:20:10;;;;;;;13.73;3.88;;;;;;;14.56;74.74;93112.63;6165371;23;20569;-76
2022/09/29 05:22:36;;;;;;;8.93;3.67;;;;;;;14.63;74.54;93112.75;6165050;23;19993;-76
2022/09/29 05:25:02;;;;;;;10.98;4.07;;;;;;;14.74;73.95;93105.69;6165492;23;20008;-76
2022/09/29 05:27:28;;;;;;;11.48;2.88;;;;;;;14.88;72.74;93105.16;6165110;23;19997;-76
2022/09/29 05:29:53;;;;;;;17.60;3.83;;;;;;;15.02;72.98;93110.75;6164921;23;20009;-76
2022/09/29 05:32:19;;;;;;;13.57;3.85;;;;;;;15.13;71.61;93099.41;6165272;23;20001;-75
2022/09/29 05:34:44;;;;;;;16.02;3.53;;;;;;;15.21;71.47;93109.13;6164993;23;20002;-75
2022/09/29 05:37:10;;;;;;;16.83;4.40;;;;;;;15.12;71.40;93101.31;6165439;23;19998;-76
2022/09/29 05:39:36;;;;;;;15.52;4.55;;;;;;;15.24;71.79;93103.03;6165092;23;20296;-76
2022/09/29 05:42:08;;;;;;;26.40;4.80;;;;;;;15.35;72.02;93120.06;6165175;23;19997;-76
2022/09/29 05:44:34;;;;;;;21.33;4.45;;;;;;;15.38;72.29;93135.44;6164731;23;20017;-75
2022/09/29 05:46:59;;;;;;;24.65;5.05;;;;;;;15.41;72.18;93139.34;6164964;23;20001;-76
2022/09/29 05:49:25;;;;;;;16.52;5.15;;;;;;;15.43;71.53;93143.22;6165153;23;20310;-76
2022/09/29 05:51:51;;;;;;;16.67;4.85;;;;;;;15.51;71.27;93132.56;6165116;23;19997;-76
2022/09/29 05:54:16;;;;;;;13.30;4.28;;;;;;;15.60;72.13;93141.16;6164948;23;20310;-75
2022/09/29 05:56:42;;;;;;;19.70;4.40;;;;;;;15.68;72.03;93142.81;6164892;23;20009;-75
2022/09/29 05:59:08;;;;;;;28.13;5.00;;;;;;;15.74;70.05;93152.13;6164802;23;20001;-76
2022/09/29 06:01:34;;;;;;;17.88;5.43;;;;;;;15.76;71.27;93157.91;6165370;23;20057;-76
2022/09/29 06:04:00;;;;;;;28.92;4.80;;;;;;;15.81;70.09;93160.31;6165175;23;20200;-75
2022/09/29 06:06:27;;;;;;;14.07;3.85;;;;;;;15.89;69.12;93165.75;6165165;23;19997;-75
2022/09/29 06:08:52;;;;;;;18.33;5.07;;;;;;;16.01;68.46;93157.47;6164817;23;20039;-78
2022/09/29 06:11:21;;;;;;;9.27;3.75;;;;;;;16.16;68.63;93161.13;6164900;23;19997;-73
2022/09/29 06:13:48;;;;;;;14.43;3.55;;;;;;;16.31;67.81;93154.03;6164997;23;20002;-73
2022/09/29 06:16:16;;;;;;;16.40;3.90;;;;;;;16.35;67.05;93155.63;6164703;23;20203;-73
2022/09/29 06:18:41;;;;;;;16.77;3.92;;;;;;;16.43;67.21;93164.53;6164883;23;20009;-76
2022/09/29 06:21:10;;;;;;;18.63;4.63;;;;;;;16.49;67.67;93151.56;6164968;23;19997;-76
2022/09/29 06:23:35;;;;;;;17.73;4.32;;;;;;;16.52;67.59;93145.41;6164794;23;20322;-76
2022/09/29 06:26:04;;;;;;;15.10;3.83;;;;;;;16.60;67.15;93147.03;6164773;23;20052;-76
2022/09/29 06:28:30;;;;;;;18.30;3.80;;;;;;;16.72;66.53;93164.84;6164822;23;20096;-76
2022/09/29 06:31:04;;;;;;;18.02;4.00;;;;;;;16.85;65.81;93152.72;6164908;23;20281;-76
2022/09/29 06:33:31;;;;;;;10.10;3.60;;;;;;;17.03;64.92;93164.41;6164987;23;19993;-76
2022/09/29 06:38:42;;;;;;;8.07;3.28;;;;;;;17.37;63.76;93150.88;6164971;23;20027;-75
2022/09/29 06:41:08;;;;;;;19.67;4.10;;;;;;;17.56;63.43;93154.47;6164936;23;20315;-76
2022/09/29 06:43:34;;;;;;;9.00;3.53;;;;;;;17.74;62.82;93168.84;6165055;23;20330;-75
2022/09/29 06:46:00;;;;;;;8.63;2.58;;;;;;;17.87;61.70;93161.28;6165088;23;19998;-76
2022/09/29 06:48:26;;;;;;;13.25;2.63;;;;;;;18.00;60.56;93161.72;6164771;23;20299;-75
2022/09/29 06:50:51;;;;;;;13.82;2.63;;;;;;;18.07;60.40;93158.28;6165156;23;19998;-75
2022/09/29 06:53:17;;;;;;;8.15;2.88;;;;;;;18.16;59.92;93161.44;6164725;23;20318;-75
2022/09/29 06:55:42;;;;;;;15.32;3.35;;;;;;;18.33;60.37;93160.72;6164938;23;19997;-75
2022/09/29 06:58:08;;;;;;;9.63;2.78;;;;;;;18.41;60.40;93169.63;6164544;23;20128;-76
2022/09/29 07:00:34;;;;;;;7.85;2.35;;;;;;;18.48;59.10;93177.78;6164367;23;20052;-76
2022/09/29 07:03:00;;;;;;;11.57;2.78;;;;;;;18.49;59.38;93187.41;6164459;23;20342;-76
2022/09/29 07:05:51;;;;;;;7.43;2.58;;;;;;;18.49;59.03;93182.00;6164450;23;19993;-77
2022/09/29 07:08:17;;;;;;;12.70;2.65;;;;;;;18.56;58.33;93192.84;6121000;23;20210;-76
2022/09/29 07:10:42;;;;;;;7.57;4.20;;;;;;;18.61;58.13;93197.09;6164095;23;20001;-76
2022/09/29 07:13:08;;;;;;;10.25;3.00;;;;;;;18.70;58.60;93191.34;6164325;23;20001;-76
2022/09/29 07:15:34;;;;;;;11.75;2.70;;;;;;;18.78;58.62;93190.97;6164810;23;19997;-77
2022/09/29 07:18:00;;;;;;;8.63;2.75;;;;;;;18.91;57.47;93188.75;6164249;23;20045;-77
2022/09/29 07:20:27;;;;;;;6.40;2.65;;;;;;;18.98;57.35;93172.53;6163106;23;20072;-77
2022/09/29 07:22:53;;;;;;;9.43;2.60;;;;;;;19.06;56.87;93169.88;6164313;23;20064;-76
2022/09/29 07:25:19;;;;;;;11.05;2.90;;;;;;;19.16;56.49;93177.97;6164296;23;20020;-76
2022/09/29 07:27:45;;;;;;;9.40;2.88;;;;;;;19.29;56.21;93180.31;6164366;23;20010;-75
2022/09/29 07:30:11;;;;;;;8.90;3.72;;;;;;;19.29;55.34;93175.69;6164002;23;20032;-74
2022/09/29 07:32:36;;;;;;;12.40;2.47;;;;;;;19.33;55.51;93181.84;6164361;23;20001;-75
2022/09/29 07:35:02;;;;;;;10.38;2.20;;;;;;;19.41;55.52;93178.00;6164231;23;19997;-76
2022/09/29 07:37:29;;;;;;;11.73;2.67;;;;;;;19.43;55.34;93183.78;6164332;23;20024;-75
2022/09/29 07:39:54;;;;;;;11.68;2.97;;;;;;;19.49;56.05;93175.31;6164336;23;20045;-75
2022/09/29 07:42:20;;;;;;;9.50;4.10;;;;;;;19.52;55.88;93179.94;6164411;23;20283;-75
2022/09/29 07:44:46;;;;;;;18.90;3.30;;;;;;;19.56;55.20;93183.41;6163998;23;19994;-76
2022/09/29 07:47:12;;;;;;;27.73;3.67;;;;;;;19.58;55.18;93197.31;6164308;23;20057;-76
2022/09/29 07:49:38;;;;;;;9.48;2.95;;;;;;;19.60;55.25;93184.19;6162654;23;20002;-76
2022/09/29 07:52:04;;;;;;;16.95;2.92;;;;;;;19.49;54.59;93188.81;6163952;23;20048;-76
2022/09/29 07:54:30;;;;;;;10.18;2.65;;;;;;;19.50;54.42;93195.75;6164307;23;20354;-75
2022/09/29 07:56:55;;;;;;;14.68;2.95;;;;;;;19.53;54.46;93200.41;6164314;23;20005;-75
2022/09/29 07:59:21;;;;;;;10.30;3.20;;;;;;;19.54;54.86;93196.53;6164331;23;20001;-74
2022/09/29 08:01:47;;;;;;;11.50;2.75;;;;;;;19.53;54.93;93201.19;6163993;23;20020;-73
2022/09/29 08:04:13;;;;;;;11.13;2.92;;;;;;;19.53;55.07;93209.28;6164303;23;20008;-74
2022/09/29 08:06:39;;;;;;;10.55;3.33;;;;;;;19.54;54.55;93207.34;6164101;23;20008;-74
2022/09/29 08:09:05;;;;;;;12.25;3.72;;;;;;;19.58;54.22;93205.41;6163853;23;20066;-74
2022/09/29 08:11:31;;;;;;;9.50;3.05;;;;;;;19.57;54.34;93222.81;6164264;23;20092;-75
2022/09/29 08:13:56;;;;;;;11.93;2.95;;;;;;;19.56;54.79;93210.44;6163881;23;19990;-74
2022/09/29 08:16:22;;;;;;;15.55;3.58;;;;;;;19.57;54.97;93223.56;6164139;23;20008;-74
2022/09/29 08:18:49;;;;;;;17.83;4.30;;;;;;;19.55;54.76;93225.88;6164236;23;20044;-75
2022/09/29 08:21:14;;;;;;;20.05;5.13;;;;;;;19.66;54.54;93225.88;6164447;23;20021;-75
2022/09/29 08:23:42;;;;;;;15.80;3.58;;;;;;;19.68;54.67;93209.28;6166093;23;20299;-75
2022/09/29 08:26:15;;;;;;;15.13;4.15;;;;;;;19.68;54.74;93217.41;6166063;23;19998;-75
2022/09/29 08:28:42;;;;;;;13.75;2.97;;;;;;;19.72;55.47;93229.81;6166580;23;20001;-75
2022/09/29 08:31:15;;;;;;;9.63;2.85;;;;;;;19.73;55.14;93225.94;6166247;23;20064;-75
2022/09/29 08:33:41;;;;;;;8.45;2.70;;;;;;;19.76;53.67;93219.78;6166132;23;20045;-74
2022/09/29 08:36:16;;;;;;;15.05;3.08;;;;;;;19.71;53.66;93232.88;6166315;23;20327;-76
2022/09/29 08:38:43;;;;;;;12.25;2.88;;;;;;;19.67;55.48;93232.84;6166417;23;20001;-76
2022/09/29 08:41:24;;;;;;;14.18;3.00;;;;;;;19.67;54.60;93240.19;6165908;23;20004;-76
2022/09/29 08:44:04;;;;;;;11.60;2.65;;;;;;;19.72;54.78;93229.81;6166428;23;20210;-76
2022/09/29 08:46:48;;;;;;;12.32;3.38;;;;;;;19.83;54.82;93222.47;6164374;23;20228;-73
2022/09/29 08:49:26;;;;;;;13.40;3.38;;;;;;;19.94;54.55;93227.09;6166062;23;20347;-75
2022/09/29 08:51:55;;;;;;;19.73;3.42;;;;;;;20.06;55.17;93232.09;6166022;23;19998;-75
2022/09/29 08:54:33;;;;;;;25.85;4.18;;;;;;;20.11;52.77;93215.50;6166131;23;19998;-74
2022/09/29 08:57:00;;;;;;;9.85;3.20;;;;;;;20.10;53.62;93213.94;6166158;23;20295;-75
2022/09/29 08:59:28;;;;;;;16.23;3.17;;;;;;;20.17;53.61;93222.06;6166004;23;20311;-76
2022/09/29 09:02:18;;;;;;;23.38;5.18;;;;;;;20.22;53.69;93220.88;6166261;23;19997;-76
2022/09/29 09:05:10;;;;;;;19.13;3.72;;;;;;;20.35;53.74;93229.34;6165635;23;20068;-75
2022/09/29 09:07:50;;;;;;;9.18;3.00;;;;;;;20.45;53.96;93220.44;6113305;23;20024;-76
2022/09/29 09:10:29;;;;;;;12.60;3.97;;;;;;;20.56;53.15;93231.25;6166154;23;20064;-74
2022/09/29 09:13:28;;;;;;;13.75;4.20;;;;;;;20.63;52.78;93232.00;6165698;23;20003;-74
2022/09/29 09:16:00;;;;;;;20.15;3.33;;;;;;;20.51;51.60;93229.69;6165782;23;20078;-74
2022/09/29 09:18:41;;;;;;;;;;;;;;;20.53;51.97;93213.81;6165995;23;20287;-74
2022/09/29 09:21:09;;;;;;;17.40;4.28;;;;;;;20.48;51.85;93227.00;6164215;23;20187;-74
2022/09/29 09:24:12;;;;;;;5.93;2.35;;;;;;;20.48;51.18;93229.72;6164014;23;20005;-74
2022/09/29 09:26:43;;;;;;;12.18;2.85;;;;;;;20.47;52.48;93228.16;6163881;23;20002;-76
2022/09/29 09:29:21;;;;;;;14.43;3.60;;;;;;;20.44;51.92;93227.78;6163851;23;20061;-75
2022/09/29 09:32:20;;;;;;;20.25;6.18;;;;;;;20.53;51.74;93232.78;6163794;23;20311;-75
2022/09/29 09:34:59;;;;;;;12.60;4.47;;;;;;;20.55;52.78;93229.69;6165205;23;19994;-75
2022/09/29 09:37:31;;;;;;;5.97;2.25;;;;;;;20.50;50.37;93220.03;6165807;23;20249;-74
2022/09/29 09:39:56;;;;;;;11.82;2.28;;;;;;;20.56;50.75;93209.59;6165431;23;20017;-75
2022/09/29 09:42:32;;;;;;;11.40;2.83;;;;;;;20.70;52.69;93220.41;6165564;23;20009;-76
2022/09/29 09:45:04;;;;;;;13.55;2.63;;;;;;;20.98;52.22;93233.03;6165194;23;20195;-76
2022/09/29 09:47:39;;;;;;;8.30;2.25;;;;;;;21.10;45.83;93212.09;6165564;23;20243;-73
2022/09/29 09:50:19;;;;;;;12.00;2.15;;;;;;;21.17;47.08;93217.47;6165381;23;20000;-73
2022/09/29 09:52:47;;;;;;;8.00;2.30;;;;;;;21.26;46.10;93201.53;6165712;23;20195;-74
2022/09/29 09:55:24;;;;;;;6.55;2.25;;;;;;;21.29;42.42;93200.75;6165653;23;20020;-73
2022/09/29 09:58:17;;;;;;;10.45;2.20;;;;;;;21.48;43.65;93196.78;6165602;23;20005;-74
2022/09/29 10:00:49;;;;;;;;;;;;;;;21.76;44.58;93211.31;6165976;23;20005;-73
2022/09/29 10:03:15;;;;;;;2.42;1.10;;;;;;;21.85;41.66;93198.03;6165211;23;19951;-74
2022/09/29 10:05:44;;;;;;;2.22;1.10;;;;;;;21.94;40.43;93200.28;6165373;23;19993;-73
2022/09/29 10:08:39;;;;;;;5.65;1.77;;;;;;;21.93;40.27;93204.94;6165718;23;20001;-73
2022/09/29 10:11:22;;;;;;;6.60;1.45;;;;;;;21.93;41.40;93196.03;6162298;23;20009;-74
2022/09/29 10:13:55;;;;;;;5.00;1.70;;;;;;;21.63;45.05;93209.03;6165316;23;19994;-75
2022/09/29 10:16:46;;;;;;;7.68;2.55;;;;;;;21.36;45.37;93216.97;6165279;23;20057;-74
2022/09/29 10:19:12;;;;;;;7.55;2.67;;;;;;;21.44;44.12;93218.50;6149033;23;20258;-75
2022/09/29 10:21:38;;;;;;;10.90;2.22;;;;;;;21.51;43.73;93208.75;6165054;23;20043;-74
2022/09/29 10:24:18;;;;;;;15.98;2.13;;;;;;;21.67;44.31;93213.69;6165264;23;19998;-75
2022/09/29 10:26:46;;;;;;;5.85;1.80;;;;;;;21.90;42.61;93237.53;6165198;23;20004;-75
2022/09/29 10:29:24;;;;;;;6.40;1.92;;;;;;;22.02;42.14;93228.91;6165133;23;19993;-75
2022/09/29 10:32:01;;;;;;;10.60;1.83;;;;;;;22.18;41.55;93225.66;6164953;23;20017;-75
2022/09/29 10:34:28;;;;;;;8.85;1.90;;;;;;;22.37;39.48;93232.50;6165157;23;20028;-75
2022/09/29 10:36:55;;;;;;;4.93;1.40;;;;;;;22.54;38.69;93226.09;6165219;23;20005;-74
2022/09/29 10:39:42;;;;;;;5.45;1.75;;;;;;;22.61;39.93;93233.41;6164931;23;20284;-74
2022/09/29 10:42:22;;;;;;;5.53;1.83;;;;;;;22.84;41.56;93227.34;6165197;23;20005;-74
2022/09/29 10:45:20;;;;;;;6.25;1.92;;;;;;;22.99;38.60;93204.22;6165288;23;20044;-74
2022/09/29 10:47:56;;;;;;;9.52;1.90;;;;;;;23.20;40.68;93224.19;6164115;23;20001;-76
2022/09/29 10:50:25;;;;;;;15.07;2.53;;;;;;;23.44;39.59;93204.03;6165413;23;20296;-75
2022/09/29 10:52:56;;;;;;;11.35;2.33;;;;;;;23.62;39.31;93203.78;6165403;23;20105;-75
2022/09/29 10:55:25;;;;;;;3.22;1.40;;;;;;;23.76;39.08;93210.97;6163681;23;20207;-75
2022/09/29 10:57:53;;;;;;;8.13;1.30;;;;;;;23.90;37.72;93193.66;6165198;23;19997;-75
2022/09/29 11:00:25;;;;;;;2.78;1.45;;;;;;;23.98;37.10;93197.06;6165148;23;20001;-75
2022/09/29 11:02:52;;;;;;;6.65;1.42;;;;;;;24.03;37.04;93183.72;6165082;23;20314;-75
2022/09/29 11:05:25;;;;;;;4.70;1.42;;;;;;;24.07;36.88;93194.53;6165015;23;20196;-75
2022/09/29 11:07:52;;;;;;;3.20;1.27;;;;;;;23.94;35.33;93190.91;6163506;23;19997;-74
2022/09/29 11:10:34;;;;;;;6.10;1.15;;;;;;;23.72;36.11;93187.72;6164941;23;20044;-75
2022/09/29 11:13:23;;;;;;;2.40;1.17;;;;;;;23.80;35.77;93194.63;6164536;23;20001;-75
2022/09/29 11:15:49;;;;;;;3.33;1.10;;;;;;;23.75;34.77;93179.50;6146476;23;20209;-75
2022/09/29 11:18:22;;;;;;;6.95;1.33;;;;;;;23.85;34.61;93182.47;6165093;23;20001;-76
2022/09/29 11:21:01;;;;;;;2.53;1.15;;;;;;;23.73;34.99;93168.25;6162606;23;20056;-76
2022/09/29 11:23:46;;;;;;;4.57;1.27;;;;;;;23.64;36.49;93179.66;6164308;23;20004;-77
2022/09/29 11:26:53;;;;;;;2.80;1.20;;;;;;;23.75;35.97;93171.34;6163281;23;20073;-77
2022/09/29 11:29:31;;;;;;;2.83;1.08;;;;;;;23.82;35.08;93179.41;6163864;23;20194;-75
2022/09/29 11:32:11;;;;;;;8.98;1.45;;;;;;;23.89;36.16;93173.06;6164468;23;20060;-78
2022/09/29 11:34:37;;;;;;;4.85;1.30;;;;;;;24.12;35.59;93182.41;6164444;23;20006;-77
2022/09/29 11:37:15;;;;;;;6.53;1.40;;;;;;;24.27;36.18;93183.69;6164923;23;20077;-79
2022/09/29 11:40:08;;;;;;;3.22;0.90;;;;;;;24.39;34.43;93182.31;6165312;23;20135;-81
2022/09/29 11:42:49;;;;;;;;;;;;;;;24.44;35.14;93179.09;6152988;23;20009;-81
2022/09/29 11:45:21;;;;;;;2.35;0.90;;;;;;;24.21;35.34;93182.66;6165261;23;19909;-78
2022/09/29 11:48:06;;;;;;;6.10;1.70;;;;;;;23.99;34.52;93177.56;6165440;23;20292;-81
2022/09/29 11:50:53;;;;;;;3.13;0.98;;;;;;;23.94;35.79;93201.78;6164545;23;19998;-78